createdAt,value
2022-12-19T00:01:05.507Z,23.60
2022-12-19T00:03:31.887Z,14.30
2022-12-19T00:06:01.131Z,17.20
2022-12-19T00:08:27.775Z,17.93
2022-12-19T00:10:55.561Z,20.57
2022-12-19T00:13:21.906Z,18.07
2022-12-19T00:15:48.200Z,18.37
2022-12-19T00:18:14.492Z,18.17
2022-12-19T00:20:40.747Z,19.63
2022-12-19T00:23:07.679Z,15.20
2022-12-19T00:25:33.948Z,20.07
2022-12-19T00:28:01.626Z,20.13
2022-12-19T00:30:27.917Z,21.50
2022-12-19T00:32:55.103Z,14.50
2022-12-19T00:35:21.390Z,24.07
2022-12-19T00:37:49.761Z,13.77
2022-12-19T00:40:16.257Z,17.00
2022-12-19T00:42:42.522Z,22.80
2022-12-19T00:45:08.982Z,14.50
2022-12-19T00:47:35.359Z,9.33
2022-12-19T00:50:01.662Z,13.30
2022-12-19T00:52:27.928Z,19.00
2022-12-19T00:54:55.886Z,24.10
2022-12-19T00:57:22.174Z,17.97
2022-12-19T00:59:48.475Z,16.80
2022-12-19T01:02:14.848Z,10.87
2022-12-19T01:04:41.923Z,16.93
2022-12-19T01:07:08.466Z,15.03
2022-12-19T01:09:35.792Z,20.77
2022-12-19T01:12:24.382Z,18.50
2022-12-19T01:14:54.668Z,17.80
2022-12-19T01:17:24.829Z,19.30
2022-12-19T01:19:51.115Z,17.10
2022-12-19T01:22:17.404Z,22.33
2022-12-19T01:24:43.694Z,12.53
2022-12-19T01:27:10.029Z,15.03
2022-12-19T01:29:37.722Z,23.83
2022-12-19T01:32:18.318Z,20.53
2022-12-19T01:34:44.592Z,22.33
2022-12-19T01:37:10.853Z,22.67
2022-12-19T01:39:37.131Z,18.47
2022-12-19T01:42:11.067Z,18.43
2022-12-19T01:44:37.401Z,17.60
2022-12-19T01:47:03.741Z,16.80
2022-12-19T01:49:34.599Z,18.97
2022-12-19T01:52:02.665Z,14.50
2022-12-19T01:54:33.461Z,14.53
2022-12-19T01:57:01.340Z,24.23
2022-12-19T01:59:44.986Z,13.37
2022-12-19T02:02:14.546Z,15.10
2022-12-19T02:04:41.044Z,13.80
2022-12-19T02:07:15.521Z,21.80
2022-12-19T02:09:44.483Z,13.87
2022-12-19T02:12:10.811Z,12.57
2022-12-19T02:14:37.201Z,10.90
2022-12-19T02:17:13.188Z,11.70
2022-12-19T02:19:58.189Z,20.03
2022-12-19T02:22:32.644Z,16.10
2022-12-19T02:25:17.614Z,15.32
2022-12-19T02:28:01.315Z,16.08
2022-12-19T02:30:46.329Z,16.13
2022-12-19T02:33:17.634Z,15.38
2022-12-19T02:35:51.585Z,17.67
2022-12-19T02:38:21.489Z,15.70
2022-12-19T02:40:55.855Z,17.70
2022-12-19T02:43:23.691Z,23.92
2022-12-19T02:45:51.055Z,19.87
2022-12-19T02:48:19.240Z,9.90
2022-12-19T02:50:47.900Z,19.53
2022-12-19T02:53:16.807Z,16.83
2022-12-19T02:55:56.157Z,17.90
2022-12-19T02:58:41.394Z,21.43
2022-12-19T03:01:24.737Z,19.93
2022-12-19T03:03:51.954Z,17.80
2022-12-19T03:06:21.134Z,14.93
2022-12-19T03:08:59.592Z,16.80
2022-12-19T03:11:29.509Z,11.97
2022-12-19T03:14:15.792Z,16.30
2022-12-19T03:16:42.243Z,14.03
2022-12-19T03:19:10.394Z,17.70
2022-12-19T03:21:41.251Z,11.63
2022-12-19T03:24:08.924Z,16.87
2022-12-19T03:26:41.411Z,16.07
2022-12-19T03:29:20.117Z,15.73
2022-12-19T03:31:46.800Z,14.27
2022-12-19T03:34:19.661Z,13.83
2022-12-19T03:36:48.358Z,12.50
2022-12-19T03:39:15.478Z,19.40
2022-12-19T03:42:01.856Z,12.30
2022-12-19T03:44:30.759Z,13.60
2022-12-19T03:47:09.527Z,12.30
2022-12-19T03:49:36.134Z,10.53
2022-12-19T03:52:08.318Z,13.10
2022-12-19T03:54:38.572Z,16.10
2022-12-19T03:57:07.956Z,15.10
2022-12-19T03:59:45.880Z,11.27
2022-12-19T04:02:13.283Z,8.13
2022-12-19T04:04:44.867Z,11.87
2022-12-19T04:07:12.758Z,9.63
2022-12-19T04:09:40.394Z,11.13
2022-12-19T04:12:09.792Z,11.30
2022-12-19T04:14:37.223Z,8.13
2022-12-19T04:17:22.171Z,14.13
2022-12-19T04:19:59.718Z,9.82
2022-12-19T04:22:29.852Z,9.23
2022-12-19T04:24:57.242Z,7.23
2022-12-19T04:27:23.883Z,10.10
2022-12-19T04:29:53.858Z,6.60
2022-12-19T04:32:20.600Z,11.80
2022-12-19T04:34:46.928Z,11.07
2022-12-19T04:37:13.226Z,7.23
2022-12-19T04:39:39.581Z,10.03
2022-12-19T04:42:05.939Z,9.80
2022-12-19T04:44:32.343Z,11.13
2022-12-19T04:46:58.614Z,7.90
2022-12-19T04:49:25.023Z,9.00
2022-12-19T04:51:51.300Z,8.97
2022-12-19T04:54:17.690Z,7.40
2022-12-19T04:56:44.115Z,7.80
2022-12-19T04:59:10.682Z,10.90
2022-12-19T05:01:37.124Z,6.47
2022-12-19T05:04:04.827Z,10.83
2022-12-19T05:06:31.554Z,6.77
2022-12-19T05:08:57.953Z,10.07
2022-12-19T05:11:24.392Z,8.33
2022-12-19T05:13:50.818Z,13.60
2022-12-19T05:16:17.461Z,10.40
2022-12-19T05:18:43.896Z,7.20
2022-12-19T05:21:11.008Z,8.30
2022-12-19T05:23:37.708Z,10.67
2022-12-19T05:26:04.872Z,7.27
2022-12-19T05:28:32.053Z,7.80
2022-12-19T05:31:04.334Z,9.50
2022-12-19T05:33:30.800Z,8.57
2022-12-19T05:35:57.097Z,14.20
2022-12-19T05:38:23.404Z,7.00
2022-12-19T05:40:49.691Z,8.70
2022-12-19T05:43:16.007Z,6.93
2022-12-19T05:45:42.309Z,7.10
2022-12-19T05:48:09.621Z,19.00
2022-12-19T05:50:36.011Z,8.90
2022-12-19T05:53:02.312Z,8.47
2022-12-19T05:55:28.808Z,10.40
2022-12-19T05:57:55.677Z,7.40
2022-12-19T06:00:22.299Z,12.40
2022-12-19T06:02:48.696Z,11.30
2022-12-19T06:05:15.151Z,8.43
2022-12-19T06:07:41.490Z,8.60
2022-12-19T06:10:07.974Z,33.63
2022-12-19T06:12:34.364Z,8.63
2022-12-19T06:15:00.703Z,12.87
2022-12-19T06:17:27.023Z,10.70
2022-12-19T06:19:53.332Z,8.67
2022-12-19T06:22:19.671Z,9.70
2022-12-19T06:24:45.972Z,17.03
2022-12-19T06:27:12.359Z,12.23
2022-12-19T06:29:38.634Z,11.17
2022-12-19T06:32:04.994Z,9.83
2022-12-19T06:35:02.868Z,6.97
2022-12-19T06:37:17.682Z,6.77
2022-12-19T06:39:44.052Z,6.90
2022-12-19T06:42:25.670Z,11.23
2022-12-19T06:44:52.696Z,8.13
2022-12-19T06:47:19.752Z,31.43
2022-12-19T06:49:49.528Z,6.73
2022-12-19T06:52:16.537Z,7.47
2022-12-19T06:54:42.838Z,24.70
2022-12-19T06:57:09.130Z,9.17
2022-12-19T06:59:35.467Z,9.57
2022-12-19T07:02:07.711Z,13.57
2022-12-19T07:04:40.230Z,13.87
2022-12-19T07:07:07.261Z,9.23
2022-12-19T07:09:33.697Z,8.33
2022-12-19T07:12:00.301Z,4.40
2022-12-19T07:14:26.579Z,7.40
2022-12-19T07:16:54.153Z,9.33
2022-12-19T07:19:21.259Z,11.80
2022-12-19T07:21:47.888Z,8.00
2022-12-19T07:24:15.076Z,30.93
2022-12-19T07:26:42.433Z,8.77
2022-12-19T07:29:09.463Z,7.23
2022-12-19T07:31:36.173Z,11.20
2022-12-19T07:34:02.525Z,6.73
2022-12-19T07:36:28.822Z,8.70
2022-12-19T07:38:55.237Z,7.23
2022-12-19T07:41:21.556Z,13.07
2022-12-19T07:43:47.915Z,6.53
2022-12-19T07:46:14.604Z,8.57
2022-12-19T07:48:41.043Z,12.03
2022-12-19T07:51:07.338Z,8.77
2022-12-19T07:53:33.676Z,7.67
2022-12-19T07:55:59.971Z,7.27
2022-12-19T07:58:26.293Z,6.53
2022-12-19T08:01:00.832Z,13.30
2022-12-19T08:03:28.329Z,8.00
2022-12-19T08:05:59.989Z,8.33
2022-12-19T08:08:26.321Z,4.70
2022-12-19T08:10:52.718Z,10.47
2022-12-19T08:13:19.015Z,8.80
2022-12-19T08:15:45.393Z,8.00
2022-12-19T08:18:12.485Z,8.53
2022-12-19T08:20:38.768Z,6.17
2022-12-19T08:23:05.108Z,10.23
2022-12-19T08:25:31.473Z,11.87
2022-12-19T08:27:57.939Z,7.87
2022-12-19T08:30:24.711Z,9.30
2022-12-19T08:32:51.135Z,11.63
2022-12-19T08:35:17.446Z,8.23
2022-12-19T08:37:43.800Z,6.13
2022-12-19T08:40:10.434Z,7.73
2022-12-19T08:42:36.957Z,10.20
2022-12-19T08:45:03.358Z,7.83
2022-12-19T08:47:29.667Z,10.17
2022-12-19T08:49:56.903Z,14.33
2022-12-19T08:52:23.220Z,7.87
2022-12-19T08:54:49.506Z,10.73
2022-12-19T08:57:15.912Z,8.23
2022-12-19T08:59:42.194Z,9.73
2022-12-19T09:02:10.468Z,8.83
2022-12-19T09:05:57.962Z,8.77
2022-12-19T09:07:23.940Z,8.63
2022-12-19T09:09:50.271Z,7.43
2022-12-19T09:12:16.837Z,6.67
2022-12-19T09:14:44.341Z,6.97
2022-12-19T09:17:10.758Z,9.23
2022-12-19T09:19:37.179Z,7.20
2022-12-19T09:22:04.112Z,8.43
2022-12-19T09:24:30.415Z,14.17
2022-12-19T09:26:56.729Z,7.07
2022-12-19T09:29:23.087Z,8.77
2022-12-19T09:31:55.735Z,7.83
2022-12-19T09:34:36.928Z,5.70
2022-12-19T09:37:09.258Z,8.50
2022-12-19T09:39:42.145Z,13.20
2022-12-19T09:42:25.468Z,15.03
2022-12-19T09:45:14.648Z,13.90
2022-12-19T09:47:59.503Z,10.82
2022-12-19T09:50:41.237Z,10.00
2022-12-19T09:53:12.109Z,7.53
2022-12-19T09:55:41.081Z,9.60
2022-12-19T09:58:26.085Z,7.87
2022-12-19T10:00:55.967Z,6.22
2022-12-19T10:03:26.295Z,11.43
2022-12-19T10:07:10.958Z,15.47
2022-12-19T10:09:02.577Z,6.67
2022-12-19T10:12:39.235Z,9.63
2022-12-19T10:14:48.062Z,7.67
2022-12-19T10:17:25.726Z,6.27
2022-12-19T10:20:01.085Z,11.40
2022-12-19T10:22:39.297Z,7.13
2022-12-19T10:25:25.808Z,16.33
2022-12-19T10:28:01.326Z,6.83
2022-12-19T10:30:31.884Z,10.47
2022-12-19T10:33:12.186Z,13.80
2022-12-19T10:35:49.369Z,21.30
2022-12-19T10:38:16.890Z,17.20
2022-12-19T10:41:04.435Z,9.70
2022-12-19T10:43:37.881Z,9.70
2022-12-19T10:46:15.093Z,8.37
2022-12-19T10:48:41.503Z,12.47
2022-12-19T10:51:19.140Z,7.03
2022-12-19T10:53:52.459Z,10.50
2022-12-19T10:56:24.699Z,15.93
2022-12-19T10:58:57.288Z,8.63
2022-12-19T11:01:28.661Z,9.27
2022-12-19T11:04:12.864Z,6.67
2022-12-19T11:06:52.792Z,8.23
2022-12-19T11:09:27.734Z,6.03
2022-12-19T11:15:20.572Z,8.85
2022-12-19T11:18:54.668Z,9.17
2022-12-19T11:22:49.853Z,10.80
2022-12-19T11:29:27.659Z,7.17
2022-12-19T11:29:47.129Z,6.97
2022-12-19T11:30:25.555Z,10.17
2022-12-19T11:32:44.227Z,16.67
2022-12-19T11:35:19.916Z,7.70
2022-12-19T11:37:58.336Z,13.23
2022-12-19T11:40:36.660Z,6.83
2022-12-19T11:46:28.223Z,7.27
2022-12-19T11:49:01.346Z,6.87
2022-12-19T11:51:30.430Z,9.20
2022-12-19T11:54:02.322Z,7.70
2022-12-19T11:56:28.912Z,9.57
2022-12-19T11:58:57.393Z,8.50
2022-12-19T12:01:44.025Z,7.87
2022-12-19T12:04:30.034Z,6.73
2022-12-19T12:06:57.595Z,15.73
2022-12-19T12:13:19.113Z,6.90
2022-12-19T12:20:22.790Z,8.30
2022-12-19T12:26:11.568Z,10.40
2022-12-19T12:31:11.789Z,9.57
2022-12-19T12:31:20.456Z,6.57
2022-12-19T12:31:39.809Z,6.50
2022-12-19T12:31:50.266Z,9.70
2022-12-19T12:31:58.824Z,7.67
2022-12-19T12:35:33.437Z,7.60
2022-12-19T12:37:55.787Z,7.40
2022-12-19T12:38:29.858Z,7.70
2022-12-19T12:41:12.042Z,8.60
2022-12-19T12:43:41.165Z,8.57
2022-12-19T12:46:12.988Z,11.33
2022-12-19T12:48:45.656Z,7.00
2022-12-19T12:51:12.193Z,7.33
2022-12-19T12:53:40.693Z,12.60
2022-12-19T12:56:08.575Z,10.57
2022-12-19T12:58:48.349Z,6.40
2022-12-19T13:01:25.096Z,7.30
2022-12-19T13:03:54.260Z,15.05
2022-12-19T13:06:35.649Z,9.03
2022-12-19T13:09:04.723Z,7.70
2022-12-19T13:11:49.657Z,9.33
2022-12-19T13:14:34.525Z,6.88
2022-12-19T13:17:11.013Z,6.45
2022-12-19T13:19:52.286Z,6.97
2022-12-19T13:22:22.767Z,6.80
2022-12-19T13:24:53.464Z,6.03
2022-12-19T13:27:19.754Z,6.47
2022-12-19T13:29:53.686Z,6.77
2022-12-19T13:32:20.962Z,6.70
2022-12-19T13:36:19.123Z,6.33
2022-12-19T13:40:02.472Z,7.70
2022-12-19T13:41:26.797Z,7.82
2022-12-19T13:43:58.394Z,8.17
2022-12-19T13:46:30.802Z,6.03
2022-12-19T13:49:02.005Z,6.67
2022-12-19T13:51:28.401Z,6.30
2022-12-19T13:53:59.493Z,7.30
2022-12-19T13:56:30.130Z,5.97
2022-12-19T13:58:58.156Z,7.50
2022-12-19T14:01:24.729Z,7.80
2022-12-19T14:03:53.331Z,7.80
2022-12-19T14:06:25.081Z,5.83
2022-12-19T14:09:37.323Z,6.73
2022-12-19T14:13:44.909Z,5.60
2022-12-19T14:14:47.439Z,6.30
2022-12-19T14:17:18.163Z,6.90
2022-12-19T14:19:45.840Z,6.87
2022-12-19T14:22:20.550Z,6.53
2022-12-19T14:24:55.469Z,8.55
2022-12-19T14:28:19.732Z,7.07
2022-12-19T14:30:35.636Z,7.10
2022-12-19T14:33:44.636Z,6.53
2022-12-19T14:36:06.919Z,6.90
2022-12-19T14:39:24.814Z,6.83
2022-12-19T14:41:47.849Z,12.40
2022-12-19T14:52:35.436Z,6.13
2022-12-19T14:54:11.538Z,6.67
2022-12-19T14:54:13.500Z,6.68
2022-12-19T14:54:29.543Z,8.37
2022-12-19T14:56:08.827Z,7.17
2022-12-19T14:58:52.745Z,6.10
2022-12-19T15:01:23.289Z,5.57
2022-12-19T15:04:47.239Z,9.37
2022-12-19T15:07:09.459Z,6.57
2022-12-19T15:11:06.499Z,6.28
2022-12-19T15:14:03.867Z,6.97
2022-12-19T15:15:23.816Z,8.47
2022-12-19T15:17:54.987Z,7.57
2022-12-19T15:20:21.391Z,6.85
2022-12-19T15:22:48.164Z,7.63
2022-12-19T15:25:36.003Z,10.17
2022-12-19T15:28:01.796Z,5.57
2022-12-19T15:30:31.269Z,5.80
2022-12-19T15:32:57.611Z,6.00
2022-12-19T15:35:23.908Z,8.43
2022-12-19T15:37:50.196Z,8.90
2022-12-19T15:40:17.391Z,9.10
2022-12-19T15:42:44.761Z,7.47
2022-12-19T15:45:19.559Z,6.93
2022-12-19T15:47:47.714Z,6.18
2022-12-19T15:50:19.094Z,12.30
2022-12-19T15:52:45.628Z,7.82
2022-12-19T15:55:19.401Z,6.35
2022-12-19T15:57:53.519Z,5.05
2022-12-19T16:00:23.871Z,6.93
2022-12-19T16:05:37.251Z,5.72
2022-12-19T16:08:06.046Z,10.07
2022-12-19T16:10:32.398Z,7.83
2022-12-19T16:12:58.859Z,8.83
2022-12-19T16:15:26.457Z,11.07
2022-12-19T16:17:53.070Z,7.60
2022-12-19T16:20:21.974Z,9.38
2022-12-19T16:22:48.375Z,11.07
2022-12-19T16:25:14.838Z,7.70
2022-12-19T16:27:42.156Z,9.20
2022-12-19T16:30:19.506Z,9.93
2022-12-19T16:32:45.897Z,8.20
2022-12-19T16:35:23.934Z,8.73
2022-12-19T16:38:00.771Z,5.05
2022-12-19T16:40:27.126Z,5.00
2022-12-19T16:42:58.996Z,11.30
2022-12-19T16:45:26.582Z,4.18
2022-12-19T16:47:52.960Z,9.02
2022-12-19T16:50:22.220Z,4.65
2022-12-19T16:52:48.520Z,3.53
2022-12-19T16:55:15.058Z,4.55
2022-12-19T16:57:42.364Z,3.95
2022-12-19T17:00:12.541Z,7.38
2022-12-19T17:02:53.129Z,6.25
2022-12-19T17:05:21.493Z,6.55
2022-12-19T17:07:48.203Z,5.43
2022-12-19T17:10:14.760Z,8.35
2022-12-19T17:12:41.773Z,3.95
2022-12-19T17:15:13.891Z,5.10
2022-12-19T17:17:40.186Z,5.63
2022-12-19T17:20:06.975Z,5.72
2022-12-19T17:22:33.273Z,4.90
2022-12-19T17:24:59.667Z,6.03
2022-12-19T17:27:26.128Z,4.55
2022-12-19T17:29:52.535Z,4.80
2022-12-19T17:32:24.076Z,29.48
2022-12-19T17:34:51.876Z,8.27
2022-12-19T17:37:18.258Z,6.72
2022-12-19T17:39:44.567Z,5.30
2022-12-19T17:42:15.676Z,5.32
2022-12-19T17:44:42.127Z,7.68
2022-12-19T17:47:11.414Z,5.10
2022-12-19T17:49:38.232Z,4.40
2022-12-19T17:52:05.405Z,6.65
2022-12-19T17:54:32.600Z,8.43
2022-12-19T17:56:58.939Z,6.90
2022-12-19T17:59:25.251Z,13.52
2022-12-19T18:01:51.749Z,7.75
2022-12-19T18:04:19.017Z,6.53
2022-12-19T18:06:45.742Z,5.88
2022-12-19T18:09:17.129Z,6.68
2022-12-19T18:11:43.566Z,7.57
2022-12-19T18:14:09.882Z,7.13
2022-12-19T18:16:36.222Z,9.63
2022-12-19T18:19:03.359Z,5.32
2022-12-19T18:21:29.694Z,6.38
2022-12-19T18:23:56.037Z,12.00
2022-12-19T18:26:22.646Z,4.50
2022-12-19T18:28:49.030Z,5.55
2022-12-19T18:31:18.024Z,4.78
2022-12-19T18:33:45.648Z,8.77
2022-12-19T18:36:22.869Z,4.35
2022-12-19T18:38:49.884Z,5.88
2022-12-19T18:41:17.324Z,5.25
2022-12-19T18:43:44.137Z,6.43
2022-12-19T18:46:14.954Z,9.95
2022-12-19T18:48:41.990Z,11.43
2022-12-19T18:51:14.262Z,5.10
2022-12-19T18:53:40.704Z,6.95
2022-12-19T18:56:07.305Z,7.00
2022-12-19T18:58:34.250Z,2.78
2022-12-19T19:01:01.508Z,2.78
2022-12-19T19:03:29.525Z,4.55
2022-12-19T19:05:56.456Z,4.65
2022-12-19T19:08:24.619Z,5.22
2022-12-19T19:10:51.793Z,6.25
2022-12-19T19:13:18.821Z,4.95
2022-12-19T19:15:46.789Z,2.67
2022-12-19T19:18:13.359Z,3.25
2022-12-19T19:20:41.488Z,2.97
2022-12-19T19:23:09.712Z,2.80
2022-12-19T19:25:36.612Z,3.33
2022-12-19T19:28:03.751Z,3.17
2022-12-19T19:30:31.098Z,3.90
2022-12-19T19:32:59.522Z,2.63
2022-12-19T19:35:27.229Z,2.65
2022-12-19T19:37:55.137Z,3.55
2022-12-19T19:40:21.470Z,3.17
2022-12-19T19:42:47.889Z,3.95
2022-12-19T19:45:14.200Z,3.22
2022-12-19T19:47:42.385Z,4.30
2022-12-19T19:50:09.746Z,2.88
2022-12-19T19:52:37.409Z,3.13
2022-12-19T19:55:03.954Z,3.10
2022-12-19T19:57:30.248Z,3.50
2022-12-19T19:59:56.593Z,3.63
2022-12-19T20:02:23.166Z,3.08
2022-12-19T20:04:49.684Z,3.85
2022-12-19T20:07:17.245Z,3.63
2022-12-19T20:09:43.658Z,2.70
2022-12-19T20:12:10.047Z,2.75
2022-12-19T20:14:36.381Z,3.80
2022-12-19T20:17:02.683Z,3.17
2022-12-19T20:19:29.018Z,2.42
2022-12-19T20:21:55.483Z,4.38
2022-12-19T20:24:21.796Z,2.67
2022-12-19T20:26:48.157Z,3.45
2022-12-19T20:29:14.675Z,3.53
2022-12-19T20:31:41.757Z,4.10
2022-12-19T20:34:08.183Z,5.40
2022-12-19T20:36:34.695Z,3.55
2022-12-19T20:39:01.137Z,2.75
2022-12-19T20:41:27.461Z,3.72
2022-12-19T20:43:53.861Z,2.92
2022-12-19T20:46:20.902Z,2.92
2022-12-19T20:48:47.946Z,2.53
2022-12-19T20:51:14.843Z,2.55
2022-12-19T20:53:41.663Z,4.93
2022-12-19T20:56:09.242Z,3.38
2022-12-19T20:58:36.577Z,6.22
2022-12-19T21:01:05.539Z,2.88
2022-12-19T21:03:32.280Z,4.88
2022-12-19T21:05:59.002Z,7.70
2022-12-19T21:08:26.188Z,2.95
2022-12-19T21:10:52.599Z,5.47
2022-12-19T21:13:19.191Z,6.93
2022-12-19T21:15:45.701Z,4.07
2022-12-19T21:18:12.196Z,4.03
2022-12-19T21:20:38.615Z,3.53
2022-12-19T21:23:05.130Z,3.35
2022-12-19T21:25:31.454Z,3.58
2022-12-19T21:27:58.234Z,2.40
2022-12-19T21:30:25.026Z,2.78
2022-12-19T21:32:51.298Z,3.28
2022-12-19T21:35:17.673Z,2.92
2022-12-19T21:37:49.872Z,2.50
2022-12-19T21:40:16.426Z,3.47
2022-12-19T21:42:42.783Z,4.45
2022-12-19T21:45:09.497Z,2.97
2022-12-19T21:47:39.197Z,2.38
2022-12-19T21:50:14.858Z,3.80
2022-12-19T21:52:41.224Z,3.03
2022-12-19T21:55:08.595Z,5.00
2022-12-19T21:57:38.384Z,3.17
2022-12-19T22:00:05.146Z,3.42
2022-12-19T22:02:31.563Z,2.63
2022-12-19T22:04:57.930Z,8.43
2022-12-19T22:07:24.278Z,2.95
2022-12-19T22:09:50.569Z,10.48
2022-12-19T22:12:16.872Z,19.40
2022-12-19T22:14:43.633Z,4.85
2022-12-19T22:17:09.988Z,6.03
2022-12-19T22:19:36.277Z,7.28
2022-12-19T22:22:03.042Z,5.55
2022-12-19T22:24:29.352Z,4.13
2022-12-19T22:26:56.016Z,3.78
2022-12-19T22:29:22.376Z,7.00
2022-12-19T22:31:49.567Z,5.25
2022-12-19T22:34:17.131Z,4.32
2022-12-19T22:36:44.496Z,3.58
2022-12-19T22:39:17.807Z,3.40
2022-12-19T22:41:44.694Z,3.55
2022-12-19T22:44:23.873Z,3.40
2022-12-19T22:46:50.620Z,2.92
2022-12-19T22:49:17.565Z,3.05
2022-12-19T22:51:43.882Z,4.03
2022-12-19T22:54:10.630Z,2.63
2022-12-19T22:56:37.351Z,4.03
2022-12-19T22:59:05.052Z,5.40
2022-12-19T23:01:39.017Z,4.20
2022-12-19T23:04:07.173Z,5.78
2022-12-19T23:06:34.670Z,7.28
2022-12-19T23:09:01.020Z,5.55
2022-12-19T23:11:29.289Z,8.68
2022-12-19T23:13:55.712Z,4.20
2022-12-19T23:16:22.062Z,3.42
2022-12-19T23:18:48.483Z,4.70
2022-12-19T23:21:16.047Z,3.92
2022-12-19T23:23:43.165Z,2.55
2022-12-19T23:26:15.537Z,3.20
2022-12-19T23:28:43.067Z,2.63
2022-12-19T23:31:11.037Z,2.90
2022-12-19T23:33:37.668Z,3.00
2022-12-19T23:36:04.752Z,2.90
2022-12-19T23:38:31.336Z,2.85
2022-12-19T23:41:01.169Z,6.35
2022-12-19T23:43:27.709Z,2.63
2022-12-19T23:45:54.363Z,3.03
2022-12-19T23:48:24.968Z,3.15
2022-12-19T23:50:58.876Z,6.57
2022-12-19T23:53:25.349Z,9.38
2022-12-19T23:55:51.705Z,5.43
2022-12-19T23:58:24.197Z,4.18
